Time;durP1;ratioP1;P1;durP2;ratioP2;P2;SDS_P1;SDS_P2;PMS_P1;PMS_P2;Temp;Humidity;BMP_temperature;BMP_pressure;BME280_temperature;BME280_humidity;BME280_pressure;Samples;Min_cycle;Max_cycle;Signal;HPM_P1;HPM_P2
2024/02/18 00:01:40;;;;;;;3.60;2.25;;;;;;;;;;5030631;28;20041;-68
2024/02/18 00:04:05;;;;;;;6.97;2.72;;;;;;;;;;5013095;28;20483;-69
2024/02/18 00:06:30;;;;;;;4.90;2.88;;;;;;;;;;5029374;28;20053;-68
2024/02/18 00:08:56;;;;;;;5.68;2.67;;;;;;;;;;5031073;28;20040;-69
2024/02/18 00:11:21;;;;;;;3.35;1.90;;;;;;;;;;5031403;28;20087;-68
2024/02/18 00:13:47;;;;;;;5.60;2.65;;;;;;;;;;5031149;28;20521;-69
2024/02/18 00:16:12;;;;;;;4.60;2.13;;;;;;;;;;5030527;28;20025;-69
2024/02/18 00:18:37;;;;;;;5.65;1.95;;;;;;;;;;5029867;28;20112;-68
2024/02/18 00:21:03;;;;;;;3.97;1.92;;;;;;;;;;5031011;28;20536;-69
2024/02/18 00:23:29;;;;;;;6.38;1.98;;;;;;;;;;5030228;28;20485;-69
2024/02/18 00:25:55;;;;;;;3.08;1.60;;;;;;;;;;5030902;28;20132;-68
2024/02/18 00:28:20;;;;;;;3.53;1.40;;;;;;;;;;5031069;28;20044;-69
2024/02/18 00:30:49;;;;;;;4.80;1.95;;;;;;;;;;5030307;28;20029;-68
2024/02/18 00:33:18;;;;;;;3.65;1.75;;;;;;;;;;5030419;28;20033;-69
2024/02/18 00:35:43;;;;;;;4.20;2.08;;;;;;;;;;5031004;28;20080;-70
2024/02/18 00:38:08;;;;;;;6.68;2.20;;;;;;;;;;5029825;28;20057;-68
2024/02/18 00:40:34;;;;;;;3.53;1.77;;;;;;;;;;5030814;28;20659;-69
2024/02/18 00:42:59;;;;;;;4.82;2.55;;;;;;;;;;5030582;28;20532;-69
2024/02/18 00:45:25;;;;;;;3.50;2.03;;;;;;;;;;5030262;28;20048;-69
2024/02/18 00:47:50;;;;;;;5.13;2.88;;;;;;;;;;5033092;28;20040;-69
2024/02/18 00:50:16;;;;;;;4.45;2.40;;;;;;;;;;5012802;28;20044;-69
2024/02/18 00:52:41;;;;;;;4.03;1.92;;;;;;;;;;5029512;28;20044;-69
2024/02/18 00:55:07;;;;;;;5.60;2.72;;;;;;;;;;5028688;28;20036;-70
2024/02/18 00:57:32;;;;;;;4.03;2.60;;;;;;;;;;5030065;28;20037;-69
2024/02/18 00:59:57;;;;;;;4.53;2.38;;;;;;;;;;5030344;28;20030;-68
2024/02/18 01:02:23;;;;;;;8.38;3.20;;;;;;;;;;5029672;28;20029;-69
2024/02/18 01:04:48;;;;;;;6.32;3.22;;;;;;;;;;5030335;28;20036;-68
2024/02/18 01:07:13;;;;;;;5.50;2.92;;;;;;;;;;5029419;28;20025;-69
2024/02/18 01:09:39;;;;;;;8.43;3.40;;;;;;;;;;5029960;28;20076;-69
2024/02/18 01:12:04;;;;;;;8.13;3.33;;;;;;;;;;5028761;28;20053;-69
2024/02/18 01:14:30;;;;;;;27.83;4.07;;;;;;;;;;5030107;28;20033;-69
2024/02/18 01:16:57;;;;;;;4.88;2.65;;;;;;;;;;5029564;28;20038;-69
2024/02/18 01:19:22;;;;;;;6.18;2.35;;;;;;;;;;5029183;28;20033;-69
2024/02/18 01:21:48;;;;;;;5.75;3.20;;;;;;;;;;5029071;28;20087;-69
2024/02/18 01:24:13;;;;;;;5.63;2.90;;;;;;;;;;5028910;28;20038;-69
2024/02/18 01:26:38;;;;;;;13.18;3.28;;;;;;;;;;5029713;28;20396;-68
2024/02/18 01:29:03;;;;;;;9.98;3.83;;;;;;;;;;5030145;28;20445;-69
2024/02/18 01:31:29;;;;;;;6.28;3.58;;;;;;;;;;5029457;28;20358;-69
2024/02/18 01:33:54;;;;;;;9.10;4.50;;;;;;;;;;5029485;28;20460;-69
2024/02/18 01:36:20;;;;;;;13.30;5.35;;;;;;;;;;5029583;28;20029;-68
2024/02/18 01:38:45;;;;;;;10.43;5.07;;;;;;;;;;5029569;28;20596;-69
2024/02/18 01:41:10;;;;;;;12.20;5.35;;;;;;;;;;5026289;28;20045;-69
2024/02/18 01:43:36;;;;;;;11.73;5.68;;;;;;;;;;5029357;28;20034;-68
2024/02/18 01:46:02;;;;;;;14.95;5.47;;;;;;;;;;5028928;28;20126;-69
2024/02/18 01:48:27;;;;;;;12.25;4.65;;;;;;;;;;5033004;28;20038;-68
2024/02/18 01:50:53;;;;;;;11.93;5.10;;;;;;;;;;5032291;28;20040;-68
2024/02/18 01:53:18;;;;;;;11.60;5.03;;;;;;;;;;5033258;28;20248;-68
2024/02/18 01:55:44;;;;;;;16.10;5.63;;;;;;;;;;5033194;28;20033;-69
2024/02/18 01:58:10;;;;;;;18.50;5.88;;;;;;;;;;5033675;28;20477;-69
2024/02/18 02:00:39;;;;;;;10.98;5.32;;;;;;;;;;5033267;28;20620;-69
2024/02/18 02:03:04;;;;;;;12.25;4.95;;;;;;;;;;5014583;28;20406;-68
2024/02/18 02:05:31;;;;;;;13.38;5.30;;;;;;;;;;5033276;28;20045;-68
2024/02/18 02:07:56;;;;;;;17.05;5.20;;;;;;;;;;5014968;28;20530;-68
2024/02/18 02:10:21;;;;;;;11.02;4.60;;;;;;;;;;5032069;28;20116;-68
2024/02/18 02:12:47;;;;;;;9.90;4.63;;;;;;;;;;5033399;28;20412;-69
2024/02/18 02:15:12;;;;;;;11.13;4.65;;;;;;;;;;5033585;28;20083;-69
2024/02/18 02:17:38;;;;;;;8.60;4.38;;;;;;;;;;5031744;28;20065;-68
2024/02/18 02:20:09;;;;;;;12.82;4.28;;;;;;;;;;5032086;28;20048;-69
2024/02/18 02:22:35;;;;;;;7.68;3.47;;;;;;;;;;5031644;28;20080;-70
2024/02/18 02:25:01;;;;;;;9.98;4.00;;;;;;;;;;5032321;28;20540;-68
2024/02/18 02:27:36;;;;;;;7.10;3.75;;;;;;;;;;5032141;28;20147;-68
2024/02/18 02:30:03;;;;;;;5.88;3.17;;;;;;;;;;5030172;28;20042;-68
2024/02/18 02:32:29;;;;;;;6.35;3.17;;;;;;;;;;5035360;28;20051;-69
2024/02/18 02:34:54;;;;;;;7.20;2.90;;;;;;;;;;5033394;28;20304;-69
2024/02/18 02:37:19;;;;;;;5.88;2.80;;;;;;;;;;5031708;28;20370;-69
2024/02/18 02:39:45;;;;;;;5.00;2.78;;;;;;;;;;5036124;28;20064;-68
2024/02/18 02:42:10;;;;;;;9.13;3.33;;;;;;;;;;5027992;28;20029;-69
2024/02/18 02:44:35;;;;;;;8.65;4.05;;;;;;;;;;5029947;28;20400;-68
2024/02/18 02:47:01;;;;;;;7.97;3.20;;;;;;;;;;5037787;28;20112;-68
2024/02/18 02:49:26;;;;;;;6.80;3.00;;;;;;;;;;5031401;28;20329;-69
2024/02/18 02:51:51;;;;;;;5.72;2.55;;;;;;;;;;5031784;28;20045;-68
2024/02/18 02:54:17;;;;;;;5.55;3.05;;;;;;;;;;5032115;28;20037;-68
2024/02/18 02:56:42;;;;;;;4.95;2.58;;;;;;;;;;5030965;28;20651;-69
2024/02/18 02:59:07;;;;;;;5.28;2.53;;;;;;;;;;5031758;28;20034;-68
2024/02/18 03:01:33;;;;;;;5.65;2.42;;;;;;;;;;5031524;28;20037;-69
2024/02/18 03:03:58;;;;;;;4.25;2.22;;;;;;;;;;5032950;28;20033;-68
2024/02/18 03:06:23;;;;;;;4.90;2.00;;;;;;;;;;5032724;28;20049;-68
2024/02/18 03:08:49;;;;;;;3.63;1.80;;;;;;;;;;5033823;28;20078;-68
2024/02/18 03:11:14;;;;;;;3.70;2.00;;;;;;;;;;5032497;28;20041;-70
2024/02/18 03:13:39;;;;;;;4.07;1.75;;;;;;;;;;5032245;28;20038;-68
2024/02/18 03:16:05;;;;;;;5.30;2.47;;;;;;;;;;5026997;28;20049;-69
2024/02/18 03:18:31;;;;;;;8.07;2.00;;;;;;;;;;5032497;28;20040;-68
2024/02/18 03:20:57;;;;;;;6.75;1.70;;;;;;;;;;5031543;28;20041;-69
2024/02/18 03:23:22;;;;;;;4.43;1.83;;;;;;;;;;5032034;28;20366;-69
2024/02/18 03:25:48;;;;;;;4.97;1.65;;;;;;;;;;5032139;28;20025;-69
2024/02/18 03:28:13;;;;;;;4.50;1.60;;;;;;;;;;5031582;28;20106;-69
2024/02/18 03:30:38;;;;;;;5.68;1.50;;;;;;;;;;5031905;28;20043;-69
2024/02/18 03:33:04;;;;;;;1.63;0.82;;;;;;;;;;5032214;28;20120;-68
2024/02/18 03:35:29;;;;;;;3.38;1.30;;;;;;;;;;5030578;28;20472;-69
2024/02/18 03:37:56;;;;;;;2.50;1.10;;;;;;;;;;5031632;28;20116;-68
2024/02/18 03:40:22;;;;;;;3.22;1.20;;;;;;;;;;5031993;28;20033;-69
2024/02/18 03:42:48;;;;;;;2.42;1.10;;;;;;;;;;5031803;28;20087;-68
2024/02/18 03:45:13;;;;;;;2.72;1.20;;;;;;;;;;5031383;28;20029;-68
2024/02/18 03:47:38;;;;;;;1.50;0.70;;;;;;;;;;5031629;28;20038;-69
2024/02/18 03:50:04;;;;;;;1.52;0.70;;;;;;;;;;5032090;28;20057;-68
2024/02/18 03:52:30;;;;;;;1.70;0.85;;;;;;;;;;5030831;28;20037;-69
2024/02/18 03:54:56;;;;;;;2.53;1.10;;;;;;;;;;5030943;28;20080;-68
2024/02/18 03:57:21;;;;;;;6.50;1.75;;;;;;;;;;5031209;28;20042;-69
2024/02/18 03:59:46;;;;;;;2.95;1.30;;;;;;;;;;5030951;28;20033;-68
2024/02/18 04:02:12;;;;;;;3.88;1.45;;;;;;;;;;5031521;28;20040;-69
2024/02/18 04:04:37;;;;;;;3.55;1.52;;;;;;;;;;5031105;28;20041;-68
2024/02/18 04:07:03;;;;;;;4.70;1.33;;;;;;;;;;5031044;28;20469;-69
2024/02/18 04:09:28;;;;;;;6.63;1.63;;;;;;;;;;5030717;28;20025;-69
2024/02/18 04:11:54;;;;;;;5.15;1.33;;;;;;;;;;5030683;28;20532;-69
2024/02/18 04:14:19;;;;;;;6.15;1.50;;;;;;;;;;5031178;28;20048;-69
2024/02/18 04:16:44;;;;;;;4.28;1.00;;;;;;;;;;5030896;28;20485;-69
2024/02/18 04:19:10;;;;;;;4.10;1.23;;;;;;;;;;5031113;28;20113;-69
2024/02/18 04:21:35;;;;;;;12.50;1.42;;;;;;;;;;5030927;28;20041;-68
2024/02/18 04:24:01;;;;;;;3.65;1.10;;;;;;;;;;5030925;28;20030;-69
2024/02/18 04:26:26;;;;;;;2.97;1.10;;;;;;;;;;5015665;28;20045;-69
2024/02/18 04:28:52;;;;;;;7.82;1.38;;;;;;;;;;5030956;28;20041;-69
2024/02/18 04:31:17;;;;;;;24.42;1.92;;;;;;;;;;5030335;28;20033;-69
2024/02/18 04:33:42;;;;;;;21.30;1.50;;;;;;;;;;5030616;28;20497;-69
2024/02/18 04:36:08;;;;;;;39.33;1.98;;;;;;;;;;5030829;28;20033;-68
2024/02/18 04:38:33;;;;;;;6.50;1.30;;;;;;;;;;5030068;28;20112;-68
2024/02/18 04:41:00;;;;;;;2.83;1.00;;;;;;;;;;5022446;28;20045;-68
2024/02/18 04:43:25;;;;;;;2.17;1.00;;;;;;;;;;5029533;28;20041;-68
2024/02/18 04:45:51;;;;;;;4.90;1.15;;;;;;;;;;5028742;28;20044;-69
2024/02/18 04:48:16;;;;;;;3.10;0.75;;;;;;;;;;5030735;28;20076;-69
2024/02/18 04:50:41;;;;;;;2.55;1.13;;;;;;;;;;5029887;28;20637;-69
2024/02/18 04:53:07;;;;;;;2.58;0.85;;;;;;;;;;5029999;28;20052;-68
2024/02/18 04:55:33;;;;;;;4.85;0.90;;;;;;;;;;5030396;28;20124;-68
2024/02/18 04:57:58;;;;;;;2.10;0.93;;;;;;;;;;5030420;28;20047;-69
2024/02/18 05:00:24;;;;;;;5.70;1.20;;;;;;;;;;5029154;28;20033;-69
2024/02/18 05:02:49;;;;;;;2.70;0.77;;;;;;;;;;5030123;28;20044;-68
2024/02/18 05:05:15;;;;;;;4.30;1.10;;;;;;;;;;5030432;28;20059;-69
2024/02/18 05:07:40;;;;;;;1.60;0.80;;;;;;;;;;5012145;28;20380;-69
2024/02/18 05:10:06;;;;;;;1.27;0.70;;;;;;;;;;5027797;28;20662;-69
2024/02/18 05:12:31;;;;;;;2.47;1.05;;;;;;;;;;5029929;28;20038;-68
2024/02/18 05:14:57;;;;;;;6.55;1.20;;;;;;;;;;5030350;28;20100;-68
2024/02/18 05:17:22;;;;;;;5.65;1.20;;;;;;;;;;5027205;28;20030;-69
2024/02/18 05:19:49;;;;;;;8.10;1.40;;;;;;;;;;5030399;28;20037;-68
2024/02/18 05:22:14;;;;;;;2.28;1.00;;;;;;;;;;5028855;28;20473;-67
2024/02/18 05:24:41;;;;;;;5.70;1.02;;;;;;;;;;5029836;28;20060;-69
2024/02/18 05:27:06;;;;;;;6.07;1.50;;;;;;;;;;5029649;28;20136;-69
2024/02/18 05:29:31;;;;;;;7.78;2.17;;;;;;;;;;5029803;28;20521;-70
2024/02/18 05:31:57;;;;;;;12.50;2.38;;;;;;;;;;5029727;28;20044;-71
2024/02/18 05:34:22;;;;;;;6.60;1.90;;;;;;;;;;5028929;28;20033;-73
2024/02/18 05:36:48;;;;;;;11.95;2.95;;;;;;;;;;5029598;28;20037;-71
2024/02/18 05:39:13;;;;;;;11.20;2.78;;;;;;;;;;5029943;28;20124;-69
2024/02/18 05:41:40;;;;;;;13.38;2.67;;;;;;;;;;5029914;28;20053;-69
2024/02/18 05:44:05;;;;;;;8.50;2.70;;;;;;;;;;5012342;28;20120;-68
2024/02/18 05:46:30;;;;;;;7.65;2.90;;;;;;;;;;5029456;28;20717;-69
2024/02/18 05:48:56;;;;;;;13.43;2.97;;;;;;;;;;5029717;28;20044;-69
2024/02/18 05:51:21;;;;;;;10.98;3.00;;;;;;;;;;5029453;28;20037;-69
2024/02/18 05:53:46;;;;;;;48.50;4.38;;;;;;;;;;5030070;28;20095;-68
2024/02/18 05:56:12;;;;;;;101.55;5.85;;;;;;;;;;5029266;28;20124;-68
2024/02/18 05:58:37;;;;;;;49.22;3.60;;;;;;;;;;5012116;28;20065;-70
2024/02/18 06:01:03;;;;;;;180.15;6.50;;;;;;;;;;5029876;28;20128;-69
2024/02/18 06:03:29;;;;;;;64.93;4.75;;;;;;;;;;5028106;28;20049;-69
2024/02/18 06:05:54;;;;;;;23.17;3.63;;;;;;;;;;5028435;28;20072;-69
2024/02/18 06:08:20;;;;;;;12.38;3.55;;;;;;;;;;5029142;28;20095;-68
2024/02/18 06:10:45;;;;;;;52.60;4.40;;;;;;;;;;5028184;28;20041;-69
2024/02/18 06:13:10;;;;;;;10.90;2.65;;;;;;;;;;5029456;28;20548;-70
2024/02/18 06:15:36;;;;;;;14.48;2.85;;;;;;;;;;5029678;28;20396;-69
2024/02/18 06:18:01;;;;;;;16.60;3.15;;;;;;;;;;5027038;28;20045;-68
2024/02/18 06:20:29;;;;;;;15.43;2.58;;;;;;;;;;5028986;28;20068;-70
2024/02/18 06:22:55;;;;;;;9.88;2.83;;;;;;;;;;5006688;28;20256;-69
2024/02/18 06:25:21;;;;;;;12.70;2.72;;;;;;;;;;5028418;28;20116;-68
2024/02/18 06:27:47;;;;;;;12.13;2.80;;;;;;;;;;5027936;28;20160;-70
2024/02/18 06:30:13;;;;;;;19.67;3.17;;;;;;;;;;5022276;28;20034;-71
2024/02/18 06:32:38;;;;;;;12.63;2.67;;;;;;;;;;5009573;28;20042;-71
2024/02/18 06:35:04;;;;;;;7.35;2.50;;;;;;;;;;5033016;28;20593;-70
2024/02/18 06:37:29;;;;;;;22.30;3.20;;;;;;;;;;5032428;28;20042;-70
2024/02/18 06:39:55;;;;;;;16.75;2.90;;;;;;;;;;5032711;28;20049;-69
2024/02/18 06:42:20;;;;;;;17.55;3.30;;;;;;;;;;5014572;28;20087;-71
2024/02/18 06:44:46;;;;;;;15.80;2.85;;;;;;;;;;5015367;28;20049;-69
2024/02/18 06:47:11;;;;;;;19.08;2.65;;;;;;;;;;5032783;28;20088;-69
2024/02/18 06:49:37;;;;;;;9.38;2.63;;;;;;;;;;5032603;28;20087;-70
2024/02/18 06:52:03;;;;;;;16.00;2.55;;;;;;;;;;5030215;28;20087;-71
2024/02/18 06:54:28;;;;;;;12.32;2.60;;;;;;;;;;5023545;28;20049;-70
2024/02/18 06:56:54;;;;;;;14.60;3.05;;;;;;;;;;5032262;28;20140;-69
2024/02/18 06:59:19;;;;;;;14.63;2.85;;;;;;;;;;5032812;28;20036;-69
2024/02/18 07:01:44;;;;;;;17.00;3.20;;;;;;;;;;5029990;28;20036;-69
2024/02/18 07:04:10;;;;;;;17.00;3.03;;;;;;;;;;5032690;28;20112;-69
2024/02/18 07:06:37;;;;;;;9.70;2.67;;;;;;;;;;5031953;28;20067;-70
2024/02/18 07:09:02;;;;;;;16.05;2.97;;;;;;;;;;5032502;28;20037;-69
2024/02/18 07:11:28;;;;;;;59.58;3.92;;;;;;;;;;5032254;28;21202;-69
2024/02/18 07:13:53;;;;;;;145.40;4.63;;;;;;;;;;5032234;28;20029;-69
2024/02/18 07:16:19;;;;;;;128.93;5.13;;;;;;;;;;5014402;28;20041;-70
2024/02/18 07:18:45;;;;;;;122.82;4.47;;;;;;;;;;5014939;28;20033;-70
2024/02/18 07:21:14;;;;;;;70.35;3.70;;;;;;;;;;5031682;28;20091;-69
2024/02/18 07:23:39;;;;;;;62.45;4.50;;;;;;;;;;5031374;28;20045;-68
2024/02/18 07:26:05;;;;;;;77.90;5.07;;;;;;;;;;5034694;28;20179;-69
2024/02/18 07:28:30;;;;;;;16.13;3.13;;;;;;;;;;5033382;28;20485;-68
2024/02/18 07:30:55;;;;;;;32.17;3.35;;;;;;;;;;5030804;28;20084;-70
2024/02/18 07:33:21;;;;;;;12.30;2.47;;;;;;;;;;5032268;28;20033;-69
2024/02/18 07:35:46;;;;;;;14.18;2.65;;;;;;;;;;5030983;28;20040;-69
2024/02/18 07:38:11;;;;;;;15.10;2.85;;;;;;;;;;5031143;28;20041;-69
2024/02/18 07:40:37;;;;;;;15.32;2.75;;;;;;;;;;5031290;28;20037;-69
2024/02/18 07:43:02;;;;;;;32.55;3.30;;;;;;;;;;5031189;28;20483;-69
2024/02/18 07:45:27;;;;;;;161.45;5.45;;;;;;;;;;5029690;28;20049;-69
2024/02/18 07:47:53;;;;;;;107.55;4.63;;;;;;;;;;5031960;28;20040;-68
2024/02/18 07:50:18;;;;;;;47.38;3.55;;;;;;;;;;5031626;28;20389;-69
2024/02/18 07:52:43;;;;;;;26.35;3.20;;;;;;;;;;5031431;28;20041;-71
2024/02/18 07:55:09;;;;;;;16.25;2.47;;;;;;;;;;5031824;28;20040;-69
2024/02/18 07:57:34;;;;;;;11.52;2.20;;;;;;;;;;5031555;28;20109;-68
2024/02/18 07:59:59;;;;;;;8.18;1.40;;;;;;;;;;5031657;28;20041;-70
2024/02/18 08:02:26;;;;;;;8.90;1.85;;;;;;;;;;5031252;28;20030;-69
2024/02/18 08:04:52;;;;;;;12.90;1.90;;;;;;;;;;5031151;28;20053;-69
2024/02/18 08:07:17;;;;;;;10.32;2.20;;;;;;;;;;5030189;28;20037;-69
2024/02/18 08:09:43;;;;;;;8.00;1.75;;;;;;;;;;5029900;28;20041;-69
2024/02/18 08:12:08;;;;;;;4.38;1.52;;;;;;;;;;5030316;28;20038;-69
2024/02/18 08:14:33;;;;;;;36.67;2.40;;;;;;;;;;5030731;28;20065;-70
2024/02/18 08:16:59;;;;;;;88.45;2.38;;;;;;;;;;5031152;28;20059;-68
2024/02/18 08:19:24;;;;;;;92.35;3.00;;;;;;;;;;5030668;28;20241;-69
2024/02/18 08:21:50;;;;;;;110.25;3.58;;;;;;;;;;5030110;28;20429;-69
2024/02/18 08:24:15;;;;;;;41.63;1.95;;;;;;;;;;5030227;28;20076;-69
2024/02/18 08:26:40;;;;;;;29.77;1.88;;;;;;;;;;5031044;28;20045;-68
2024/02/18 08:29:07;;;;;;;52.78;2.53;;;;;;;;;;5029683;28;20041;-68
2024/02/18 08:31:33;;;;;;;43.92;1.83;;;;;;;;;;5029300;28;20112;-70
2024/02/18 08:34:00;;;;;;;44.97;1.67;;;;;;;;;;5029701;28;20559;-68
2024/02/18 08:36:25;;;;;;;4.25;0.77;;;;;;;;;;5030860;28;20033;-70
2024/02/18 08:38:51;;;;;;;4.85;0.70;;;;;;;;;;5030282;28;20025;-70
2024/02/18 08:41:16;;;;;;;1.35;0.70;;;;;;;;;;5030456;28;20033;-70
2024/02/18 08:43:42;;;;;;;4.55;0.90;;;;;;;;;;5030403;28;20041;-68
2024/02/18 08:46:12;;;;;;;1.42;0.80;;;;;;;;;;5030474;28;20029;-70
2024/02/18 08:48:38;;;;;;;1.40;0.70;;;;;;;;;;5022702;28;20048;-71
2024/02/18 08:51:08;;;;;;;2.78;0.80;;;;;;;;;;5025768;28;20041;-69
2024/02/18 08:53:33;;;;;;;3.53;0.80;;;;;;;;;;5024873;28;20033;-74
2024/02/18 08:55:59;;;;;;;3.17;0.90;;;;;;;;;;5022632;28;20401;-69
2024/02/18 08:58:24;;;;;;;3.65;0.63;;;;;;;;;;5029681;28;20370;-69
2024/02/18 09:00:50;;;;;;;3.10;0.88;;;;;;;;;;5029545;28;20033;-71
2024/02/18 09:03:15;;;;;;;1.80;0.70;;;;;;;;;;5028250;28;20049;-69
2024/02/18 09:05:41;;;;;;;3.08;0.88;;;;;;;;;;5029336;28;20168;-71
2024/02/18 09:08:08;;;;;;;3.10;0.85;;;;;;;;;;5029473;28;20492;-72
2024/02/18 09:10:34;;;;;;;2.42;0.70;;;;;;;;;;5024061;28;20065;-69
2024/02/18 09:13:01;;;;;;;2.60;0.80;;;;;;;;;;5027921;28;20472;-69
2024/02/18 09:15:30;;;;;;;3.35;0.90;;;;;;;;;;5028634;28;20125;-70
2024/02/18 09:17:56;;;;;;;3.50;1.02;;;;;;;;;;5027553;28;20834;-69
2024/02/18 09:20:22;;;;;;;4.25;1.13;;;;;;;;;;5023079;28;20037;-69
2024/02/18 09:22:47;;;;;;;2.08;0.70;;;;;;;;;;5029388;28;20091;-71
2024/02/18 09:25:13;;;;;;;2.55;0.75;;;;;;;;;;5028667;28;20063;-70
2024/02/18 09:27:38;;;;;;;3.85;0.75;;;;;;;;;;5028981;28;20037;-70
2024/02/18 09:30:04;;;;;;;2.28;0.77;;;;;;;;;;5030327;28;20540;-69
2024/02/18 09:32:29;;;;;;;5.50;1.20;;;;;;;;;;5029467;28;20452;-71
2024/02/18 09:34:55;;;;;;;3.08;0.90;;;;;;;;;;5030439;28;20504;-69
2024/02/18 09:37:20;;;;;;;3.05;1.00;;;;;;;;;;5030008;28;20037;-70
2024/02/18 09:39:45;;;;;;;5.88;1.10;;;;;;;;;;5029677;28;20434;-69
2024/02/18 09:42:11;;;;;;;4.35;1.15;;;;;;;;;;5029949;28;20037;-70
2024/02/18 09:44:40;;;;;;;3.17;1.00;;;;;;;;;;5029966;28;20030;-71
2024/02/18 09:47:06;;;;;;;4.45;1.00;;;;;;;;;;5029837;28;20049;-67
2024/02/18 09:49:33;;;;;;;3.53;1.10;;;;;;;;;;5028980;28;20167;-69
2024/02/18 09:51:59;;;;;;;3.42;0.95;;;;;;;;;;5032275;28;20046;-71
2024/02/18 09:54:25;;;;;;;5.18;1.10;;;;;;;;;;5028335;28;20138;-68
2024/02/18 09:56:51;;;;;;;4.45;1.00;;;;;;;;;;5030804;28;20137;-68
2024/02/18 09:59:16;;;;;;;2.22;0.88;;;;;;;;;;5030149;28;20138;-70
2024/02/18 10:01:43;;;;;;;4.88;0.93;;;;;;;;;;5024308;28;20473;-70
2024/02/18 10:04:08;;;;;;;2.78;1.00;;;;;;;;;;5026311;28;20596;-69
2024/02/18 10:06:34;;;;;;;3.72;0.80;;;;;;;;;;5030884;28;20061;-69
2024/02/18 10:09:00;;;;;;;4.35;1.60;;;;;;;;;;5035985;28;20128;-68
2024/02/18 10:11:25;;;;;;;2.85;0.60;;;;;;;;;;5033126;28;20117;-68
2024/02/18 10:13:56;;;;;;;2.00;0.80;;;;;;;;;;5031687;28;20039;-68
2024/02/18 10:16:21;;;;;;;2.85;0.88;;;;;;;;;;5032224;28;20138;-69
2024/02/18 10:18:47;;;;;;;3.28;0.82;;;;;;;;;;5032100;28;20069;-68
2024/02/18 10:21:14;;;;;;;2.75;0.98;;;;;;;;;;5032848;28;20133;-68
2024/02/18 10:23:40;;;;;;;2.90;1.10;;;;;;;;;;5029678;28;20148;-69
2024/02/18 10:26:09;;;;;;;3.45;1.30;;;;;;;;;;5030927;28;20068;-69
2024/02/18 10:28:37;;;;;;;6.60;1.10;;;;;;;;;;5031960;28;20087;-69
2024/02/18 10:31:04;;;;;;;5.13;1.55;;;;;;;;;;5014918;28;20049;-68
2024/02/18 10:33:39;;;;;;;5.68;1.10;;;;;;;;;;5024057;28;20045;-71
2024/02/18 10:36:09;;;;;;;6.15;1.00;;;;;;;;;;5028237;28;20067;-70
2024/02/18 10:38:37;;;;;;;2.17;0.68;;;;;;;;;;5028657;28;20038;-69
2024/02/18 10:41:03;;;;;;;5.43;1.05;;;;;;;;;;5030908;28;20032;-69
2024/02/18 10:43:34;;;;;;;2.17;0.60;;;;;;;;;;5031720;28;20069;-69
2024/02/18 10:46:01;;;;;;;2.58;0.80;;;;;;;;;;5032020;28;20091;-68
2024/02/18 10:48:28;;;;;;;3.47;0.70;;;;;;;;;;5015310;28;20057;-69
2024/02/18 10:50:53;;;;;;;4.97;1.20;;;;;;;;;;5015153;28;20038;-69
2024/02/18 10:53:35;;;;;;;5.68;0.95;;;;;;;;;;5015425;28;20036;-68
2024/02/18 10:56:10;;;;;;;5.05;0.88;;;;;;;;;;5024304;28;20030;-69
2024/02/18 10:58:37;;;;;;;6.60;1.02;;;;;;;;;;5015084;28;20121;-68
2024/02/18 11:01:05;;;;;;;7.57;1.25;;;;;;;;;;5031712;28;20029;-69
2024/02/18 11:03:58;;;;;;;2.78;0.90;;;;;;;;;;5031412;28;20120;-69
2024/02/18 11:06:24;;;;;;;2.13;0.75;;;;;;;;;;5032585;28;20120;-68
2024/02/18 11:08:51;;;;;;;5.90;1.23;;;;;;;;;;5030605;28;20108;-68
2024/02/18 11:11:16;;;;;;;5.18;0.90;;;;;;;;;;5031939;28;20120;-68
2024/02/18 11:13:42;;;;;;;5.47;1.15;;;;;;;;;;5030024;28;20108;-69
2024/02/18 11:16:12;;;;;;;4.85;1.48;;;;;;;;;;5034133;28;20461;-68
2024/02/18 11:18:38;;;;;;;6.00;1.35;;;;;;;;;;5030825;28;20037;-68
2024/02/18 11:21:04;;;;;;;2.10;0.70;;;;;;;;;;5029930;28;20037;-69
2024/02/18 11:23:32;;;;;;;4.47;1.08;;;;;;;;;;5030539;28;20038;-70
2024/02/18 11:25:58;;;;;;;8.07;1.10;;;;;;;;;;5029844;28;20112;-68
2024/02/18 11:28:23;;;;;;;7.75;0.95;;;;;;;;;;5031801;28;20112;-68
2024/02/18 11:30:48;;;;;;;5.35;1.20;;;;;;;;;;5030994;28;20065;-68
2024/02/18 11:33:17;;;;;;;4.85;1.00;;;;;;;;;;5032603;28;20112;-69
2024/02/18 11:35:43;;;;;;;4.95;1.17;;;;;;;;;;5031558;28;20448;-68
2024/02/18 11:38:08;;;;;;;6.95;1.70;;;;;;;;;;5030923;28;20045;-69
2024/02/18 11:40:44;;;;;;;6.07;1.27;;;;;;;;;;5032070;28;20040;-69
2024/02/18 11:43:09;;;;;;;4.47;0.95;;;;;;;;;;5021005;28;20494;-70
2024/02/18 11:45:43;;;;;;;5.22;1.10;;;;;;;;;;5030700;28;20063;-68
2024/02/18 11:48:08;;;;;;;4.45;1.13;;;;;;;;;;5024166;28;20018;-69
2024/02/18 11:50:34;;;;;;;6.75;1.20;;;;;;;;;;5030286;28;20057;-69
2024/02/18 11:52:59;;;;;;;4.88;1.13;;;;;;;;;;5029992;28;20037;-68
2024/02/18 11:55:25;;;;;;;4.85;0.95;;;;;;;;;;5032597;28;20409;-68
2024/02/18 11:57:50;;;;;;;7.90;1.20;;;;;;;;;;5030922;28;20483;-69
2024/02/18 12:00:17;;;;;;;4.65;1.27;;;;;;;;;;5011383;28;20037;-68
2024/02/18 12:02:48;;;;;;;7.65;1.40;;;;;;;;;;5013425;28;20389;-68
2024/02/18 12:05:14;;;;;;;6.10;1.48;;;;;;;;;;5030725;28;20533;-68
2024/02/18 12:07:40;;;;;;;4.70;1.40;;;;;;;;;;5014883;28;20128;-69
2024/02/18 12:10:05;;;;;;;3.95;0.93;;;;;;;;;;5034490;28;20060;-68
2024/02/18 12:12:31;;;;;;;6.32;1.17;;;;;;;;;;5031378;28;20091;-71
2024/02/18 12:14:57;;;;;;;5.72;1.08;;;;;;;;;;5031929;28;20029;-70
2024/02/18 12:17:23;;;;;;;5.53;1.20;;;;;;;;;;5029666;28;20036;-69
2024/02/18 12:19:50;;;;;;;7.22;1.50;;;;;;;;;;5026748;28;20544;-69
2024/02/18 12:22:28;;;;;;;6.00;1.50;;;;;;;;;;5012087;28;20045;-68
2024/02/18 12:24:56;;;;;;;6.40;1.48;;;;;;;;;;5035143;28;20102;-69
2024/02/18 12:27:22;;;;;;;6.57;1.33;;;;;;;;;;5030646;28;20190;-69
2024/02/18 12:29:49;;;;;;;7.43;1.40;;;;;;;;;;5029298;28;20167;-68
2024/02/18 12:32:14;;;;;;;3.33;1.10;;;;;;;;;;5028972;28;20048;-69
2024/02/18 12:34:45;;;;;;;6.00;1.42;;;;;;;;;;5031805;28;20026;-68
2024/02/18 12:37:11;;;;;;;5.40;1.45;;;;;;;;;;5024123;28;20182;-69
2024/02/18 12:39:36;;;;;;;5.63;1.35;;;;;;;;;;5030406;28;20124;-68
2024/02/18 12:42:02;;;;;;;5.80;1.38;;;;;;;;;;5030775;28;20025;-70
2024/02/18 12:44:28;;;;;;;3.88;1.10;;;;;;;;;;5030110;28;20081;-69
2024/02/18 12:46:56;;;;;;;6.95;1.30;;;;;;;;;;5029417;28;20037;-68
2024/02/18 12:49:22;;;;;;;5.28;1.20;;;;;;;;;;5030187;28;20053;-69
2024/02/18 12:51:50;;;;;;;6.57;1.40;;;;;;;;;;5030783;28;20496;-69
2024/02/18 12:54:17;;;;;;;9.32;2.20;;;;;;;;;;5030180;28;20037;-69
2024/02/18 12:56:42;;;;;;;4.40;1.40;;;;;;;;;;5029517;28;20033;-69
2024/02/18 12:59:08;;;;;;;7.53;1.35;;;;;;;;;;5030356;28;20041;-68
2024/02/18 13:01:33;;;;;;;7.75;1.33;;;;;;;;;;5029517;28;20099;-68
2024/02/18 13:03:59;;;;;;;9.30;1.30;;;;;;;;;;5030270;28;20120;-68
2024/02/18 13:06:24;;;;;;;5.43;1.27;;;;;;;;;;5030340;28;20191;-68
2024/02/18 13:08:50;;;;;;;7.07;1.52;;;;;;;;;;5029135;28;20037;-69
2024/02/18 13:11:15;;;;;;;5.72;1.05;;;;;;;;;;5029628;28;20041;-68
2024/02/18 13:13:43;;;;;;;6.63;1.50;;;;;;;;;;5030320;28;20037;-68
2024/02/18 13:16:09;;;;;;;7.65;1.40;;;;;;;;;;5029805;28;20033;-69
2024/02/18 13:18:41;;;;;;;10.00;1.70;;;;;;;;;;5029032;28;20048;-70
2024/02/18 13:21:06;;;;;;;9.70;1.85;;;;;;;;;;5030114;28;20037;-68
2024/02/18 13:23:31;;;;;;;8.60;1.58;;;;;;;;;;5029181;28;20044;-70
2024/02/18 13:25:57;;;;;;;7.88;1.70;;;;;;;;;;5027964;28;20040;-69
2024/02/18 13:28:22;;;;;;;3.15;0.88;;;;;;;;;;5027137;28;20041;-68
2024/02/18 13:30:48;;;;;;;8.27;1.30;;;;;;;;;;5028541;28;20033;-70
2024/02/18 13:33:13;;;;;;;4.50;1.17;;;;;;;;;;5028456;28;20401;-69
2024/02/18 13:35:39;;;;;;;8.55;1.70;;;;;;;;;;5029221;28;20037;-69
2024/02/18 13:38:04;;;;;;;4.93;1.40;;;;;;;;;;5030184;28;20037;-70
2024/02/18 13:40:30;;;;;;;14.07;1.58;;;;;;;;;;5029818;28;20029;-69
2024/02/18 13:42:56;;;;;;;9.73;2.05;;;;;;;;;;5012059;28;20045;-67
2024/02/18 13:45:21;;;;;;;8.13;1.52;;;;;;;;;;5033112;28;20641;-69
2024/02/18 13:47:53;;;;;;;9.20;1.83;;;;;;;;;;5032200;28;20026;-68
2024/02/18 13:50:18;;;;;;;12.50;2.15;;;;;;;;;;5015320;28;20060;-67
2024/02/18 13:52:43;;;;;;;9.00;1.60;;;;;;;;;;5033594;28;20115;-67
2024/02/18 13:55:09;;;;;;;7.70;1.40;;;;;;;;;;5032811;28;20025;-68
2024/02/18 13:57:34;;;;;;;7.60;1.60;;;;;;;;;;5036880;28;20042;-68
2024/02/18 14:00:00;;;;;;;5.63;1.40;;;;;;;;;;5033748;28;20029;-69
2024/02/18 14:02:25;;;;;;;7.43;1.85;;;;;;;;;;5031432;28;20048;-69
2024/02/18 14:04:51;;;;;;;6.72;1.70;;;;;;;;;;5033483;28;20064;-68
2024/02/18 14:07:19;;;;;;;7.07;1.70;;;;;;;;;;5033368;28;20124;-68
2024/02/18 14:09:45;;;;;;;9.48;1.52;;;;;;;;;;5033030;28;20025;-71
2024/02/18 14:12:12;;;;;;;6.18;1.38;;;;;;;;;;5033340;28;20048;-70
2024/02/18 14:14:39;;;;;;;9.32;1.67;;;;;;;;;;5025184;28;20559;-69
2024/02/18 14:17:05;;;;;;;12.77;1.73;;;;;;;;;;5033765;28;20028;-68
2024/02/18 14:19:30;;;;;;;7.88;1.73;;;;;;;;;;5031814;28;20379;-67
2024/02/18 14:21:55;;;;;;;4.43;1.10;;;;;;;;;;5032026;28;20034;-68
2024/02/18 14:24:22;;;;;;;7.88;1.67;;;;;;;;;;5033630;28;20056;-67
2024/02/18 14:26:48;;;;;;;9.93;1.38;;;;;;;;;;5032959;28;20175;-70
2024/02/18 14:29:13;;;;;;;8.93;1.40;;;;;;;;;;5033584;28;20501;-71
2024/02/18 14:31:39;;;;;;;5.15;1.23;;;;;;;;;;5033392;28;20029;-69